createdAt,value
2023-04-15T00:00:40.570Z,98821.09
2023-04-15T00:03:08.003Z,98816.00
2023-04-15T00:05:36.667Z,98813.75
2023-04-15T00:08:04.219Z,98809.66
2023-04-15T00:10:31.449Z,98811.53
2023-04-15T00:12:58.613Z,98817.75
2023-04-15T00:15:25.787Z,98809.13
2023-04-15T00:17:53.042Z,98807.44
2023-04-15T00:20:20.229Z,98815.53
2023-04-15T00:22:48.798Z,98815.53
2023-04-15T00:25:16.058Z,98811.44
2023-04-15T00:27:43.236Z,98809.91
2023-04-15T00:30:11.253Z,98809.91
2023-04-15T00:32:38.525Z,98801.69
2023-04-15T00:35:06.809Z,98806.22
2023-04-15T00:37:34.034Z,98810.44
2023-04-15T00:40:02.640Z,98800.53
2023-04-15T00:42:29.964Z,98804.91
2023-04-15T00:44:57.227Z,98798.66
2023-04-15T00:47:24.579Z,98790.59
2023-04-15T00:49:51.798Z,98801.34
2023-04-15T00:52:19.072Z,98801.22
2023-04-15T00:54:46.288Z,98793.13
2023-04-15T00:57:14.811Z,98797.38
2023-04-15T00:59:42.102Z,98798.38
2023-04-15T01:02:09.445Z,98798.06
2023-04-15T01:04:36.845Z,98796.22
2023-04-15T01:07:04.123Z,98798.91
2023-04-15T01:09:32.334Z,98795.22
2023-04-15T01:11:59.992Z,98792.84
2023-04-15T01:14:28.942Z,98792.97
2023-04-15T01:16:56.149Z,98793.69
2023-04-15T01:19:23.368Z,98792.97
2023-04-15T01:21:50.587Z,98788.59
2023-04-15T01:24:19.136Z,98789.44
2023-04-15T01:26:48.124Z,98801.91
2023-04-15T01:29:15.380Z,98796.84
2023-04-15T01:31:50.453Z,98797.97
2023-04-15T01:34:18.510Z,98800.97
2023-04-15T01:36:45.790Z,98793.91
2023-04-15T01:39:14.591Z,98794.06
2023-04-15T01:41:41.719Z,98793.19
2023-04-15T01:44:10.260Z,98787.66
2023-04-15T01:46:38.125Z,98790.91
2023-04-15T01:49:05.372Z,98790.06
2023-04-15T01:51:33.281Z,98782.66
2023-04-15T01:54:00.560Z,98788.47
2023-04-15T01:56:27.763Z,98786.28
2023-04-15T01:58:54.925Z,98790.53
2023-04-15T02:01:23.736Z,98793.50
2023-04-15T02:03:51.177Z,98790.53
2023-04-15T02:06:18.455Z,98790.66
2023-04-15T02:08:45.664Z,98782.97
2023-04-15T02:11:12.882Z,98784.38
2023-04-15T02:13:40.336Z,98785.22
2023-04-15T02:16:16.064Z,98785.94
2023-04-15T02:18:46.143Z,98781.66
2023-04-15T02:21:13.476Z,98785.38
2023-04-15T02:23:40.740Z,98784.38
2023-04-15T02:26:07.948Z,98788.78
2023-04-15T02:28:35.181Z,98788.06
2023-04-15T02:31:05.603Z,98793.75
2023-04-15T02:33:32.824Z,98790.66
2023-04-15T02:36:02.477Z,98796.28
2023-04-15T02:38:29.669Z,98796.63
2023-04-15T02:40:56.823Z,98801.00
2023-04-15T02:43:23.958Z,98795.09
2023-04-15T02:45:52.149Z,98800.13
2023-04-15T02:48:20.697Z,98798.59
2023-04-15T02:50:47.882Z,98788.53
2023-04-15T02:53:17.593Z,98790.09
2023-04-15T02:55:44.820Z,98784.69
2023-04-15T02:58:12.056Z,98784.53
2023-04-15T03:00:39.314Z,98780.28
2023-04-15T03:03:07.475Z,98786.16
2023-04-15T03:05:34.871Z,98792.22
2023-04-15T03:08:04.537Z,98782.00
2023-04-15T03:10:33.116Z,98791.63
2023-04-15T03:13:02.085Z,98792.28
2023-04-15T03:15:29.505Z,98786.91
2023-04-15T03:17:56.765Z,98777.00
2023-04-15T03:20:24.083Z,98772.63
2023-04-15T03:22:51.812Z,98772.47
2023-04-15T03:25:21.002Z,98775.84
2023-04-15T03:27:49.597Z,98775.84
2023-04-15T03:30:17.528Z,98775.31
2023-04-15T03:32:44.779Z,98777.66
2023-04-15T03:35:11.972Z,98780.38
2023-04-15T03:37:39.180Z,98778.53
2023-04-15T03:40:08.035Z,98772.13
2023-04-15T03:42:35.191Z,98782.75
2023-04-15T03:45:04.398Z,98779.22
2023-04-15T03:47:31.661Z,98777.66
2023-04-15T03:49:58.868Z,98777.16
2023-04-15T03:52:25.999Z,98774.59
2023-04-15T03:54:53.160Z,98777.59
2023-04-15T03:57:20.349Z,98768.97
2023-04-15T03:59:47.544Z,98780.47
2023-04-15T04:02:16.137Z,98779.31
2023-04-15T04:04:43.423Z,98783.84
2023-04-15T04:07:15.477Z,98781.84
2023-04-15T04:09:42.749Z,98782.81
2023-04-15T04:12:09.932Z,98782.53
2023-04-15T04:14:37.180Z,98786.91
2023-04-15T04:17:04.384Z,98786.75
2023-04-15T04:19:33.019Z,98786.59
2023-04-15T04:22:00.158Z,98784.06
2023-04-15T04:24:27.331Z,98789.75
2023-04-15T04:26:54.548Z,98789.06
2023-04-15T04:29:21.805Z,98786.53
2023-04-15T04:31:49.357Z,98785.66
2023-04-15T04:34:16.588Z,98791.91
2023-04-15T04:36:45.172Z,98785.53
2023-04-15T04:39:12.398Z,98788.91
2023-04-15T04:41:39.581Z,98794.00
2023-04-15T04:44:06.699Z,98790.31
2023-04-15T04:46:33.881Z,98790.00
2023-04-15T04:49:01.362Z,98797.59
2023-04-15T04:51:28.829Z,98793.91
2023-04-15T04:53:57.366Z,98791.91
2023-04-15T04:56:24.562Z,98798.69
2023-04-15T04:58:51.762Z,98802.06
2023-04-15T05:01:19.158Z,98800.59
2023-04-15T05:03:46.497Z,98795.75
2023-04-15T05:06:13.694Z,98796.97
2023-04-15T05:08:40.889Z,98802.59
2023-04-15T05:11:09.501Z,98803.28
2023-04-15T05:13:36.682Z,98799.44
2023-04-15T05:16:04.564Z,98809.34
2023-04-15T05:18:31.816Z,98805.34
2023-04-15T05:20:59.644Z,98801.50
2023-04-15T05:23:27.459Z,98806.41
2023-04-15T05:25:54.792Z,98809.34
2023-04-15T05:28:23.473Z,98810.41
2023-04-15T05:30:50.739Z,98802.69
2023-04-15T05:33:18.007Z,98809.00
2023-04-15T05:35:45.179Z,98815.41
2023-04-15T05:38:12.370Z,98813.72
2023-04-15T05:40:39.570Z,98813.38
2023-04-15T05:43:06.787Z,98811.84
2023-04-15T05:45:35.333Z,98821.53
2023-04-15T05:48:02.546Z,98814.59
2023-04-15T05:50:29.770Z,98812.25
2023-04-15T05:52:57.026Z,98813.84
2023-04-15T05:55:24.253Z,98813.84
2023-04-15T05:57:51.432Z,98823.34
2023-04-15T06:00:18.924Z,98823.91
2023-04-15T06:02:50.657Z,98824.09
2023-04-15T06:05:17.817Z,98823.09
2023-04-15T06:07:46.673Z,98817.25
2023-04-15T06:10:15.205Z,98816.13
2023-04-15T06:12:42.435Z,98813.59
2023-04-15T06:15:10.461Z,98812.41
2023-04-15T06:17:37.722Z,98815.47
2023-04-15T06:20:07.420Z,98817.19
2023-04-15T06:22:34.645Z,98812.59
2023-04-15T06:25:01.882Z,98827.69
2023-04-15T06:27:29.238Z,98825.69
2023-04-15T06:29:56.419Z,98823.00
2023-04-15T06:32:23.654Z,98824.34
2023-04-15T06:34:50.857Z,98825.53
2023-04-15T06:37:19.431Z,98828.94
2023-04-15T06:39:46.660Z,98833.16
2023-04-15T06:42:13.896Z,98833.81
2023-04-15T06:44:41.079Z,98836.84
2023-04-15T06:47:08.471Z,98842.28
2023-04-15T06:49:35.633Z,98841.06
2023-04-15T06:52:02.935Z,98837.53
2023-04-15T06:54:31.467Z,98830.91
2023-04-15T06:56:58.669Z,98828.47
2023-04-15T06:59:25.804Z,98830.97
2023-04-15T07:01:53.050Z,98832.78
2023-04-15T07:04:20.372Z,98834.59
2023-04-15T07:06:47.601Z,98841.28
2023-04-15T07:09:14.773Z,98841.31
2023-04-15T07:11:43.363Z,98844.75
2023-04-15T07:14:10.568Z,98840.13
2023-04-15T07:16:37.729Z,98840.00
2023-04-15T07:19:04.913Z,98851.31
2023-04-15T07:21:32.223Z,98840.28
2023-04-15T07:23:59.444Z,98843.47
2023-04-15T07:26:26.695Z,98841.44
2023-04-15T07:28:55.222Z,98844.44
2023-04-15T07:31:22.410Z,98844.81
2023-04-15T07:33:49.609Z,98840.88
2023-04-15T07:36:16.802Z,98842.25
2023-04-15T07:38:44.165Z,98845.72
2023-04-15T07:41:11.639Z,98844.03
2023-04-15T07:43:38.860Z,98842.53
2023-04-15T07:46:07.385Z,98844.91
2023-04-15T07:48:35.573Z,98859.72
2023-04-15T07:51:04.577Z,98853.31
2023-04-15T07:53:31.778Z,98854.03
2023-04-15T07:55:58.948Z,98858.03
2023-04-15T07:58:27.285Z,98860.69
2023-04-15T08:00:54.457Z,98855.81
2023-04-15T08:03:23.615Z,98853.34
2023-04-15T08:05:50.978Z,98847.91
2023-04-15T08:08:18.150Z,98850.69
2023-04-15T08:10:45.371Z,98843.63
2023-04-15T08:13:12.607Z,98852.66
2023-04-15T08:15:39.872Z,98856.94
2023-04-15T08:18:07.242Z,98848.00
2023-04-15T08:20:35.805Z,98860.06
2023-04-15T08:23:03.331Z,98857.78
2023-04-15T08:25:30.563Z,98853.63
2023-04-15T08:27:57.999Z,98851.81
2023-04-15T08:30:25.186Z,98851.50
2023-04-15T08:32:52.458Z,98855.28
2023-04-15T08:35:19.691Z,98850.88
2023-04-15T08:37:48.255Z,98847.97
2023-04-15T08:40:15.710Z,98855.75
2023-04-15T08:42:47.365Z,98850.88
2023-04-15T08:45:15.123Z,98857.44
2023-04-15T08:47:44.340Z,98853.59
2023-04-15T08:50:12.179Z,98863.34
2023-04-15T08:52:40.000Z,98858.88
2023-04-15T08:55:11.023Z,98858.75
2023-04-15T08:57:38.432Z,98859.94
2023-04-15T09:00:07.221Z,98862.38
2023-04-15T09:02:34.834Z,98870.84
2023-04-15T09:05:02.419Z,98874.03
2023-04-15T09:07:29.603Z,98875.31
2023-04-15T09:09:56.845Z,98877.19
2023-04-15T09:12:25.417Z,98872.75
2023-04-15T09:14:52.744Z,98875.50
2023-04-15T09:17:20.342Z,98881.38
2023-04-15T09:19:47.722Z,98880.94
2023-04-15T09:22:15.510Z,98884.31
2023-04-15T09:24:42.687Z,98895.91
2023-04-15T09:27:10.329Z,98886.22
2023-04-15T09:29:41.356Z,98891.69
2023-04-15T09:32:13.389Z,98894.63
2023-04-15T09:34:40.819Z,98902.38
2023-04-15T09:37:08.138Z,98909.19
2023-04-15T09:39:49.410Z,98902.63
2023-04-15T09:42:16.962Z,98908.00
2023-04-15T09:44:45.525Z,98910.53
2023-04-15T09:47:27.399Z,98910.88
2023-04-15T09:49:57.737Z,98914.94
2023-04-15T09:52:24.958Z,98912.91
2023-04-15T09:54:54.057Z,98921.34
2023-04-15T09:57:21.165Z,98918.16
2023-04-15T09:59:49.726Z,98919.38
2023-04-15T10:02:19.258Z,98926.09
2023-04-15T10:04:48.018Z,98934.53
2023-04-15T10:07:15.703Z,98918.06
2023-04-15T10:09:44.018Z,98924.72
2023-04-15T10:12:11.989Z,98922.91
2023-04-15T10:14:41.108Z,98927.31
2023-04-15T10:17:11.437Z,98923.09
2023-04-15T10:19:38.653Z,98926.03
2023-04-15T10:22:06.342Z,98927.44
2023-04-15T10:24:34.062Z,98930.72
2023-04-15T10:27:03.547Z,98933.94
2023-04-15T10:29:31.132Z,98937.75
2023-04-15T10:31:58.908Z,98935.22
2023-04-15T10:34:28.555Z,98931.41
2023-04-15T10:36:56.005Z,98934.53
2023-04-15T10:39:43.291Z,98931.28
2023-04-15T10:42:11.955Z,98933.63
2023-04-15T10:44:39.884Z,98937.66
2023-04-15T10:47:10.518Z,98935.63
2023-04-15T10:49:45.740Z,98936.97
2023-04-15T10:52:15.086Z,98937.28
2023-04-15T10:54:42.353Z,98939.56
2023-04-15T10:57:15.363Z,98940.88
2023-04-15T11:00:10.053Z,98937.75
2023-04-15T11:02:42.183Z,98939.53
2023-04-15T11:05:11.682Z,98941.28
2023-04-15T11:07:49.234Z,98942.03
2023-04-15T11:10:49.762Z,98943.94
2023-04-15T11:13:18.302Z,98953.25
2023-04-15T11:15:46.225Z,98953.91
2023-04-15T11:18:14.944Z,98951.41
2023-04-15T11:20:44.857Z,98958.25
2023-04-15T11:23:15.302Z,98963.25
2023-04-15T11:25:43.941Z,98955.09
2023-04-15T11:28:12.068Z,98961.44
2023-04-15T11:30:40.568Z,98965.19
2023-04-15T11:33:09.417Z,98963.97
2023-04-15T11:35:36.565Z,98964.50
2023-04-15T11:38:08.196Z,98968.03
2023-04-15T11:40:35.612Z,98965.88
2023-04-15T11:43:07.722Z,98967.56
2023-04-15T11:45:35.747Z,98969.88
2023-04-15T11:48:07.399Z,98970.25
2023-04-15T11:50:35.360Z,98969.47
2023-04-15T11:53:08.156Z,98976.75
2023-04-15T11:55:43.053Z,98982.22
2023-04-15T11:58:11.797Z,98980.84
2023-04-15T12:00:40.050Z,98991.91
2023-04-15T12:03:14.814Z,98980.75
2023-04-15T12:06:04.611Z,98995.94
2023-04-15T12:09:03.921Z,98988.66
2023-04-15T12:11:34.296Z,98983.44
2023-04-15T12:14:06.371Z,98995.47
2023-04-15T12:16:37.107Z,98991.97
2023-04-15T12:19:18.521Z,98994.69
2023-04-15T12:21:47.784Z,99002.94
2023-04-15T12:24:21.164Z,99005.47
2023-04-15T12:26:50.214Z,98999.91
2023-04-15T12:29:18.022Z,99004.38
2023-04-15T12:31:52.532Z,99010.88
2023-04-15T12:34:27.545Z,99019.34
2023-04-15T12:36:54.917Z,99018.34
2023-04-15T12:39:24.130Z,99018.84
2023-04-15T12:41:51.409Z,99023.75
2023-04-15T12:44:18.701Z,99028.03
2023-04-15T12:46:46.021Z,99033.81
2023-04-15T12:49:13.255Z,99033.09
2023-04-15T12:51:40.585Z,99035.44
2023-04-15T12:54:07.912Z,99036.19
2023-04-15T12:56:36.462Z,99038.09
2023-04-15T12:59:03.644Z,99038.97
2023-04-15T13:01:30.838Z,99048.66
2023-04-15T13:03:58.075Z,99053.56
2023-04-15T13:06:25.380Z,99050.22
2023-04-15T13:08:58.464Z,99049.84
2023-04-15T13:11:26.098Z,99050.81
2023-04-15T13:13:54.904Z,99057.66
2023-04-15T13:16:22.188Z,99054.28
2023-04-15T13:18:49.418Z,99059.31
2023-04-15T13:21:17.524Z,99054.66
2023-04-15T13:23:44.763Z,99059.25
2023-04-15T13:26:11.962Z,99064.31
2023-04-15T13:28:39.319Z,99060.72
2023-04-15T13:31:07.966Z,99058.19
2023-04-15T13:33:35.190Z,99064.97
2023-04-15T13:36:02.452Z,99069.75
2023-04-15T13:38:29.759Z,99069.78
2023-04-15T13:40:56.951Z,99069.66
2023-04-15T13:43:24.140Z,99073.63
2023-04-15T13:45:51.416Z,99079.69
2023-04-15T13:48:20.095Z,99082.59
2023-04-15T13:50:47.267Z,99087.78
2023-04-15T13:53:14.480Z,99090.03
2023-04-15T13:55:42.293Z,99086.47
2023-04-15T13:58:10.082Z,99084.97
2023-04-15T14:00:37.424Z,99085.41
2023-04-15T14:03:04.829Z,99082.59
2023-04-15T14:05:33.782Z,99084.66
2023-04-15T14:08:01.261Z,99086.22
2023-04-15T14:10:28.619Z,99096.22
2023-04-15T14:12:55.816Z,99097.50
2023-04-15T14:15:23.003Z,99097.25
2023-04-15T14:17:50.325Z,99106.09
2023-04-15T14:20:17.760Z,99110.50
2023-04-15T14:22:46.334Z,99113.94
2023-04-15T14:25:23.069Z,99123.16
2023-04-15T14:27:57.925Z,99115.94
2023-04-15T14:30:25.111Z,99123.25
2023-04-15T14:32:52.334Z,99129.63
2023-04-15T14:35:19.566Z,99133.50
2023-04-15T14:37:48.190Z,99136.47
2023-04-15T14:40:15.386Z,99132.06
2023-04-15T14:42:42.731Z,99137.34
2023-04-15T14:45:10.853Z,99145.88
2023-04-15T14:47:38.072Z,99148.03
2023-04-15T14:50:06.228Z,99146.16
2023-04-15T14:52:33.457Z,99143.16
2023-04-15T14:55:01.998Z,99154.50
2023-04-15T14:57:29.204Z,99162.38
2023-04-15T14:59:56.702Z,99155.53
2023-04-15T15:02:37.361Z,99165.75
2023-04-15T15:05:06.695Z,99168.13
2023-04-15T15:07:34.185Z,99173.38
2023-04-15T15:10:03.189Z,99163.53
2023-04-15T15:12:30.462Z,99174.78
2023-04-15T15:14:57.717Z,99174.31
2023-04-15T15:17:25.135Z,99176.28
2023-04-15T15:19:52.485Z,99172.84
2023-04-15T15:22:21.335Z,99182.59
2023-04-15T15:24:48.871Z,99181.91
2023-04-15T15:27:17.489Z,99184.28
2023-04-15T15:29:44.713Z,99193.09
2023-04-15T15:32:11.892Z,99192.16
2023-04-15T15:34:39.319Z,99198.25
2023-04-15T15:37:06.601Z,99198.06
2023-04-15T15:39:34.935Z,99197.97
2023-04-15T15:42:02.775Z,99199.19
2023-04-15T15:44:32.525Z,99218.09
2023-04-15T15:47:01.495Z,99208.88
2023-04-15T15:49:28.847Z,99220.63
2023-04-15T15:51:56.342Z,99220.22
2023-04-15T15:54:25.196Z,99225.88
2023-04-15T15:56:52.368Z,99227.38
2023-04-15T15:59:19.555Z,99227.56
2023-04-15T16:01:48.189Z,99228.97
2023-04-15T16:04:15.830Z,99230.56
2023-04-15T16:06:43.322Z,99233.75
2023-04-15T16:09:10.597Z,99234.59
2023-04-15T16:11:37.962Z,99239.59
2023-04-15T16:14:05.336Z,99242.31
2023-04-15T16:16:32.671Z,99244.44
2023-04-15T16:19:01.292Z,99249.25
2023-04-15T16:21:28.556Z,99247.94
2023-04-15T16:23:56.194Z,99250.84
2023-04-15T16:26:23.510Z,99253.44
2023-04-15T16:28:50.693Z,99252.06
2023-04-15T16:31:17.915Z,99257.75
2023-04-15T16:33:45.182Z,99259.44
2023-04-15T16:36:13.791Z,99261.34
2023-04-15T16:38:40.948Z,99265.63
2023-04-15T16:41:08.356Z,99264.47
2023-04-15T16:43:35.537Z,99269.91
2023-04-15T16:46:02.766Z,99273.13
2023-04-15T16:48:30.075Z,99279.13
2023-04-15T16:50:57.621Z,99274.41
2023-04-15T16:53:26.259Z,99283.25
2023-04-15T16:55:53.521Z,99287.19
2023-04-15T16:58:20.799Z,99298.06
2023-04-15T17:00:47.954Z,99298.41
2023-04-15T17:03:15.315Z,99299.28
2023-04-15T17:05:42.724Z,99302.34
2023-04-15T17:08:09.903Z,99310.81
2023-04-15T17:10:38.549Z,99306.09
2023-04-15T17:13:05.692Z,99307.78
2023-04-15T17:15:32.980Z,99317.28
2023-04-15T17:18:00.354Z,99315.09
2023-04-15T17:20:27.715Z,99321.03
2023-04-15T17:22:54.895Z,99324.94
2023-04-15T17:25:23.120Z,99323.44
2023-04-15T17:27:51.669Z,99322.59
2023-04-15T17:30:19.523Z,99323.56
2023-04-15T17:32:46.877Z,99327.66
2023-04-15T17:35:14.096Z,99330.88
2023-04-15T17:37:41.313Z,99333.59
2023-04-15T17:40:09.279Z,99344.50
2023-04-15T17:42:36.453Z,99340.25
2023-04-15T17:45:06.133Z,99342.13
2023-04-15T17:47:33.318Z,99344.19
2023-04-15T17:50:00.534Z,99347.91
2023-04-15T17:52:27.741Z,99351.84
2023-04-15T17:54:54.900Z,99345.25
2023-04-15T17:57:22.192Z,99348.09
2023-04-15T17:59:49.379Z,99362.97
2023-04-15T18:02:18.199Z,99366.84
2023-04-15T18:04:45.432Z,99369.38
2023-04-15T18:07:13.102Z,99374.34
2023-04-15T18:09:40.397Z,99374.34
2023-04-15T18:12:07.796Z,99377.75
2023-04-15T18:14:35.249Z,99381.50
2023-04-15T18:17:02.940Z,99383.34
2023-04-15T18:19:31.617Z,99384.06
2023-04-15T18:21:58.997Z,99395.44
2023-04-15T18:24:26.248Z,99393.41
2023-04-15T18:26:53.442Z,99400.22
2023-04-15T18:29:20.674Z,99402.38
2023-04-15T18:31:48.094Z,99399.34
2023-04-15T18:34:15.476Z,99396.28
2023-04-15T18:36:44.103Z,99403.47
2023-04-15T18:39:11.314Z,99405.34
2023-04-15T18:41:38.492Z,99406.56
2023-04-15T18:44:05.720Z,99411.31
2023-04-15T18:46:33.094Z,99411.00
2023-04-15T18:49:00.893Z,99420.53
2023-04-15T18:51:28.369Z,99426.28
2023-04-15T18:53:57.072Z,99434.47
2023-04-15T18:56:24.389Z,99438.22
2023-04-15T18:59:19.377Z,99446.38
2023-04-15T19:01:39.522Z,99442.63
2023-04-15T19:04:06.906Z,99444.50
2023-04-15T19:06:34.169Z,99440.94
2023-04-15T19:09:03.029Z,99455.00
2023-04-15T19:11:30.371Z,99453.63
2023-04-15T19:13:57.734Z,99461.28
2023-04-15T19:16:25.067Z,99458.56
2023-04-15T19:18:52.302Z,99468.41
2023-04-15T19:21:19.579Z,99470.28
2023-04-15T19:23:46.976Z,99474.03
2023-04-15T19:26:15.747Z,99478.81
2023-04-15T19:28:42.945Z,99483.22
2023-04-15T19:31:10.228Z,99480.84
2023-04-15T19:33:37.447Z,99477.09
2023-04-15T19:36:06.970Z,99484.59
2023-04-15T19:38:34.355Z,99486.09
2023-04-15T19:41:01.696Z,99488.16
2023-04-15T19:43:30.853Z,99491.88
2023-04-15T19:45:58.149Z,99494.09
2023-04-15T19:48:25.542Z,99491.06
2023-04-15T19:50:52.873Z,99489.16
2023-04-15T19:53:20.069Z,99487.13
2023-04-15T19:55:47.280Z,99490.34
2023-04-15T19:58:14.683Z,99498.00
2023-04-15T20:00:43.295Z,99491.25
2023-04-15T20:03:10.860Z,99494.28
2023-04-15T20:05:38.227Z,99492.75
2023-04-15T20:08:05.555Z,99493.78
2023-04-15T20:10:32.976Z,99491.25
2023-04-15T20:13:00.254Z,99494.09
2023-04-15T20:15:27.741Z,99501.59
2023-04-15T20:17:56.489Z,99502.09
2023-04-15T20:20:23.865Z,99503.63
2023-04-15T20:22:51.222Z,99494.97
2023-04-15T20:25:18.744Z,99505.16
2023-04-15T20:27:45.981Z,99507.38
2023-04-15T20:30:13.234Z,99506.34
2023-04-15T20:32:40.555Z,99507.88
2023-04-15T20:35:09.599Z,99509.94
2023-04-15T20:37:37.657Z,99516.38
2023-04-15T20:40:05.908Z,99515.53
2023-04-15T20:42:33.875Z,99514.00
2023-04-15T20:45:01.442Z,99512.81
2023-04-15T20:47:28.907Z,99527.75
2023-04-15T20:49:56.342Z,99521.28
2023-04-15T20:52:25.014Z,99517.72
2023-04-15T20:54:52.240Z,99517.03
2023-04-15T20:57:19.446Z,99522.63
2023-04-15T20:59:46.761Z,99527.56
2023-04-15T21:02:14.057Z,99527.56
2023-04-15T21:04:41.361Z,99524.84
2023-04-15T21:07:09.162Z,99531.81
2023-04-15T21:09:37.751Z,99530.66
2023-04-15T21:12:04.876Z,99544.06
2023-04-15T21:14:32.124Z,99540.66
2023-04-15T21:16:59.492Z,99535.53
2023-04-15T21:19:26.733Z,99545.25
2023-04-15T21:21:54.024Z,99546.25
2023-04-15T21:24:21.294Z,99551.34
2023-04-15T21:26:49.892Z,99548.97
2023-04-15T21:29:17.104Z,99539.13
2023-04-15T21:31:44.526Z,99552.22
2023-04-15T21:34:11.921Z,99545.59
2023-04-15T21:36:39.119Z,99543.03
2023-04-15T21:39:06.493Z,99553.03
2023-04-15T21:41:34.039Z,99546.78
2023-04-15T21:44:03.103Z,99558.50
2023-04-15T21:46:32.776Z,99560.72
2023-04-15T21:49:00.664Z,99562.59
2023-04-15T21:51:28.011Z,99567.03
2023-04-15T21:53:55.374Z,99565.81
2023-04-15T21:56:22.558Z,99568.88
2023-04-15T21:58:50.130Z,99569.22
2023-04-15T22:01:18.790Z,99570.94
2023-04-15T22:03:46.215Z,99571.09
2023-04-15T22:06:13.495Z,99576.03
2023-04-15T22:08:52.334Z,99574.16
2023-04-15T22:11:23.006Z,99575.19
2023-04-15T22:13:50.277Z,99581.63
2023-04-15T22:16:18.940Z,99579.44
2023-04-15T22:18:46.171Z,99590.63
2023-04-15T22:21:13.862Z,99589.59
2023-04-15T22:23:41.161Z,99591.50
2023-04-15T22:26:08.387Z,99591.66
2023-04-15T22:28:35.550Z,99598.31
2023-04-15T22:31:02.802Z,99606.94
2023-04-15T22:33:31.581Z,99596.78
2023-04-15T22:35:58.806Z,99608.66
2023-04-15T22:38:26.002Z,99604.94
2023-04-15T22:40:53.200Z,99610.16
2023-04-15T22:43:20.448Z,99615.81
2023-04-15T22:45:49.692Z,99619.19
2023-04-15T22:48:17.129Z,99613.09
2023-04-15T22:50:46.062Z,99618.31
2023-04-15T22:53:16.626Z,99627.50
2023-04-15T22:55:45.042Z,99618.31
2023-04-15T22:58:12.323Z,99624.78
2023-04-15T23:00:39.743Z,99630.75
2023-04-15T23:03:07.137Z,99633.47
2023-04-15T23:05:34.658Z,99636.69
2023-04-15T23:08:03.543Z,99631.94
2023-04-15T23:10:30.870Z,99630.56
2023-04-15T23:12:58.101Z,99630.56
2023-04-15T23:15:25.472Z,99632.28
2023-04-15T23:17:52.675Z,99633.81
2023-04-15T23:20:19.835Z,99644.16
2023-04-15T23:22:47.020Z,99642.13
2023-04-15T23:25:15.520Z,99653.00
2023-04-15T23:27:42.668Z,99651.31
2023-04-15T23:30:10.097Z,99641.47
2023-04-15T23:32:37.335Z,99645.34
2023-04-15T23:35:05.155Z,99655.22
2023-04-15T23:37:32.396Z,99660.13
2023-04-15T23:39:59.598Z,99651.16
2023-04-15T23:42:28.240Z,99657.41
2023-04-15T23:44:55.402Z,99660.28
2023-04-15T23:47:23.033Z,99652.34
2023-04-15T23:49:50.194Z,99660.13
2023-04-15T23:52:17.600Z,99658.59
2023-04-15T23:54:44.772Z,99656.06
2023-04-15T23:57:11.982Z,99651.97
2023-04-15T23:59:40.576Z,99653.88
